Main page
METAR-TAF:

METAR-TAF

Airports :

Jim Hogg County Airport

Hebbronville, Texas, United States

latitude: 27-20N, longitude: 098-44W, elevation: 663 ft

Current weather observation

The report was made 18 minutes ago, at 02:35 UTC
Wind 9 mph from the North
Temperature 46°F
Humidity 93%
Pressure 30.54 in. Hg
Visibility: 5 miles
Scattered clouds at a height of 700 ft
Broken clouds at a height of 1500 ft
Overcast at a height of 2300 ft
light rain

METAR: KHBV 210235Z AUTO 36008KT 5SM -RA SCT007 BKN015 OVC023 08/07 A3054 RMK AO2 T00750068

Time: 20:53 (02:53 UTC)


TAF: missing

Weather observations and forecasts of more than 4000 airports (METAR and TAF reports).

The available stations are represented by yellow and red dots on the map.

Hover mouse over dot to see the name of the station.

Then click to see weather observations and forecasts.

To change the map : click on the green buttons with a black cross to zoom in, on the green button with a dash to zoom out, or on the green arrows for adjacent maps.


METAR-TAF: